sensor_id;sensor_type;location;lat;lon;timestamp;pressure;altitude;pressure_sealevel;temperature;humidity
51986;BME280;38002;53.296;6.600;2022-10-31T00:02:17;102212.75;;;12.60;90.62
51986;BME280;38002;53.296;6.600;2022-10-31T00:07:18;102222.50;;;12.53;90.99
51986;BME280;38002;53.296;6.600;2022-10-31T00:12:18;102232.13;;;12.48;90.81
51986;BME280;38002;53.296;6.600;2022-10-31T00:17:18;102243.44;;;12.43;90.85
51986;BME280;38002;53.296;6.600;2022-10-31T00:22:19;102236.72;;;12.38;90.70
51986;BME280;38002;53.296;6.600;2022-10-31T00:27:19;102244.16;;;12.36;90.53
51986;BME280;38002;53.296;6.600;2022-10-31T00:32:21;102243.88;;;12.29;90.78
51986;BME280;38002;53.296;6.600;2022-10-31T00:37:21;102246.41;;;12.21;90.54
51986;BME280;38002;53.296;6.600;2022-10-31T00:42:22;102247.25;;;12.12;90.59
51986;BME280;38002;53.296;6.600;2022-10-31T00:47:22;102242.47;;;12.04;91.01
51986;BME280;38002;53.296;6.600;2022-10-31T00:52:23;102250.94;;;12.01;91.15
51986;BME280;38002;53.296;6.600;2022-10-31T00:57:23;102248.63;;;11.97;91.21
51986;BME280;38002;53.296;6.600;2022-10-31T01:02:23;102259.06;;;11.92;90.83
51986;BME280;38002;53.296;6.600;2022-10-31T01:07:24;102254.19;;;11.86;91.00
51986;BME280;38002;53.296;6.600;2022-10-31T01:12:24;102253.72;;;11.80;91.32
51986;BME280;38002;53.296;6.600;2022-10-31T01:17:25;102262.88;;;11.79;91.54
51986;BME280;38002;53.296;6.600;2022-10-31T01:22:25;102266.88;;;11.75;91.70
51986;BME280;38002;53.296;6.600;2022-10-31T01:27:26;102267.63;;;11.77;91.58
51986;BME280;38002;53.296;6.600;2022-10-31T01:32:27;102266.59;;;11.78;91.97
51986;BME280;38002;53.296;6.600;2022-10-31T01:37:31;102276.38;;;11.81;92.10
51986;BME280;38002;53.296;6.600;2022-10-31T01:42:31;102267.34;;;11.80;91.71
51986;BME280;38002;53.296;6.600;2022-10-31T01:47:48;102269.31;;;11.78;91.78
51986;BME280;38002;53.296;6.600;2022-10-31T01:52:50;102266.03;;;11.75;91.60
51986;BME280;38002;53.296;6.600;2022-10-31T01:57:54;102258.00;;;11.73;91.45
51986;BME280;38002;53.296;6.600;2022-10-31T02:02:55;102254.50;;;11.71;91.50
51986;BME280;38002;53.296;6.600;2022-10-31T02:08:13;102256.25;;;11.72;91.58
51986;BME280;38002;53.296;6.600;2022-10-31T02:13:15;102257.22;;;11.71;91.60
51986;BME280;38002;53.296;6.600;2022-10-31T02:18:16;102268.25;;;11.70;91.61
51986;BME280;38002;53.296;6.600;2022-10-31T02:23:44;102262.22;;;11.66;91.73
51986;BME280;38002;53.296;6.600;2022-10-31T02:34:36;102258.44;;;11.58;91.68
51986;BME280;38002;53.296;6.600;2022-10-31T02:45:22;102250.34;;;11.47;91.46
51986;BME280;38002;53.296;6.600;2022-10-31T02:50:29;102250.00;;;11.40;91.50
51986;BME280;38002;53.296;6.600;2022-10-31T03:01:04;102256.25;;;11.31;91.55
51986;BME280;38002;53.296;6.600;2022-10-31T03:06:09;102252.22;;;11.25;91.58
51986;BME280;38002;53.296;6.600;2022-10-31T03:11:23;102250.75;;;11.21;91.25
51986;BME280;38002;53.296;6.600;2022-10-31T03:16:31;102258.28;;;11.18;91.71
51986;BME280;38002;53.296;6.600;2022-10-31T03:21:52;102261.88;;;11.18;91.81
51986;BME280;38002;53.296;6.600;2022-10-31T03:26:56;102257.59;;;11.16;91.71
51986;BME280;38002;53.296;6.600;2022-10-31T03:32:02;102247.94;;;11.12;91.87
51986;BME280;38002;53.296;6.600;2022-10-31T03:37:07;102258.38;;;11.07;91.59
51986;BME280;38002;53.296;6.600;2022-10-31T03:42:11;102271.38;;;11.03;91.32
51986;BME280;38002;53.296;6.600;2022-10-31T03:47:14;102265.34;;;11.00;91.81
51986;BME280;38002;53.296;6.600;2022-10-31T03:52:57;102279.47;;;10.93;91.55
51986;BME280;38002;53.296;6.600;2022-10-31T03:57:48;102286.28;;;10.88;91.53
51986;BME280;38002;53.296;6.600;2022-10-31T04:03:15;102276.91;;;10.81;91.60
51986;BME280;38002;53.296;6.600;2022-10-31T04:08:19;102279.91;;;10.78;92.05
51986;BME280;38002;53.296;6.600;2022-10-31T04:13:27;102284.84;;;10.73;91.72
51986;BME280;38002;53.296;6.600;2022-10-31T04:18:29;102279.69;;;10.70;91.73
51986;BME280;38002;53.296;6.600;2022-10-31T04:23:30;102279.78;;;10.68;92.05
51986;BME280;38002;53.296;6.600;2022-10-31T04:28:30;102279.91;;;10.67;92.51
51986;BME280;38002;53.296;6.600;2022-10-31T04:33:32;102280.56;;;10.59;92.28
51986;BME280;38002;53.296;6.600;2022-10-31T04:38:33;102287.72;;;10.60;91.97
51986;BME280;38002;53.296;6.600;2022-10-31T04:43:33;102289.84;;;10.57;91.86
51986;BME280;38002;53.296;6.600;2022-10-31T04:48:34;102287.50;;;10.52;91.49
51986;BME280;38002;53.296;6.600;2022-10-31T04:53:34;102283.31;;;10.48;91.55
51986;BME280;38002;53.296;6.600;2022-10-31T04:58:34;102286.28;;;10.45;91.95
51986;BME280;38002;53.296;6.600;2022-10-31T05:03:35;102267.88;;;10.37;91.77
51986;BME280;38002;53.296;6.600;2022-10-31T05:08:35;102280.59;;;10.37;92.01
51986;BME280;38002;53.296;6.600;2022-10-31T05:13:36;102274.81;;;10.30;91.68
51986;BME280;38002;53.296;6.600;2022-10-31T05:18:36;102270.75;;;10.25;91.96
51986;BME280;38002;53.296;6.600;2022-10-31T05:23:37;102272.09;;;10.19;91.80
51986;BME280;38002;53.296;6.600;2022-10-31T05:28:37;102277.78;;;10.16;92.07
51986;BME280;38002;53.296;6.600;2022-10-31T05:33:37;102276.28;;;10.12;92.11
51986;BME280;38002;53.296;6.600;2022-10-31T05:38:38;102283.06;;;10.07;91.92
51986;BME280;38002;53.296;6.600;2022-10-31T05:43:38;102287.03;;;10.02;92.04
51986;BME280;38002;53.296;6.600;2022-10-31T05:48:39;102278.97;;;10.01;91.94
51986;BME280;38002;53.296;6.600;2022-10-31T05:53:39;102280.09;;;9.98;92.08
51986;BME280;38002;53.296;6.600;2022-10-31T05:58:39;102290.25;;;9.96;92.24
51986;BME280;38002;53.296;6.600;2022-10-31T06:03:40;102285.91;;;9.94;91.96
51986;BME280;38002;53.296;6.600;2022-10-31T06:08:40;102289.50;;;9.94;92.50
51986;BME280;38002;53.296;6.600;2022-10-31T06:13:41;102295.69;;;9.96;91.92
51986;BME280;38002;53.296;6.600;2022-10-31T06:18:41;102285.03;;;9.93;92.46
51986;BME280;38002;53.296;6.600;2022-10-31T06:23:42;102276.88;;;9.93;92.05
51986;BME280;38002;53.296;6.600;2022-10-31T06:28:42;102289.97;;;9.88;92.25
51986;BME280;38002;53.296;6.600;2022-10-31T06:33:43;102285.78;;;9.84;92.34
51986;BME280;38002;53.296;6.600;2022-10-31T06:38:43;102290.75;;;9.79;91.89
51986;BME280;38002;53.296;6.600;2022-10-31T06:43:46;102292.81;;;9.76;92.34
51986;BME280;38002;53.296;6.600;2022-10-31T06:48:47;102295.66;;;9.74;92.42
51986;BME280;38002;53.296;6.600;2022-10-31T06:53:47;102286.75;;;9.72;92.06
51986;BME280;38002;53.296;6.600;2022-10-31T06:58:48;102288.38;;;9.75;92.62
51986;BME280;38002;53.296;6.600;2022-10-31T07:03:48;102292.94;;;9.74;91.95
51986;BME280;38002;53.296;6.600;2022-10-31T07:08:49;102290.34;;;9.73;92.16
51986;BME280;38002;53.296;6.600;2022-10-31T07:13:49;102288.50;;;9.73;91.96
51986;BME280;38002;53.296;6.600;2022-10-31T07:18:49;102297.63;;;9.72;91.99
51986;BME280;38002;53.296;6.600;2022-10-31T07:23:50;102302.06;;;9.73;92.29
51986;BME280;38002;53.296;6.600;2022-10-31T07:28:50;102301.09;;;9.74;92.27
51986;BME280;38002;53.296;6.600;2022-10-31T07:33:51;102298.25;;;9.76;92.82
51986;BME280;38002;53.296;6.600;2022-10-31T07:38:51;102301.34;;;9.82;92.62
51986;BME280;38002;53.296;6.600;2022-10-31T07:43:52;102304.56;;;9.87;92.49
51986;BME280;38002;53.296;6.600;2022-10-31T07:48:52;102299.38;;;9.95;92.95
51986;BME280;38002;53.296;6.600;2022-10-31T07:53:53;102299.75;;;10.02;92.65
51986;BME280;38002;53.296;6.600;2022-10-31T07:58:53;102310.84;;;10.10;93.02
51986;BME280;38002;53.296;6.600;2022-10-31T08:03:53;102310.28;;;10.18;92.73
51986;BME280;38002;53.296;6.600;2022-10-31T08:08:54;102317.81;;;10.25;92.88
51986;BME280;38002;53.296;6.600;2022-10-31T08:13:54;102300.88;;;10.33;93.04
51986;BME280;38002;53.296;6.600;2022-10-31T08:18:55;102309.28;;;10.41;93.28
51986;BME280;38002;53.296;6.600;2022-10-31T08:23:55;102322.00;;;10.52;93.01
51986;BME280;38002;53.296;6.600;2022-10-31T08:28:56;102321.97;;;10.63;93.04
51986;BME280;38002;53.296;6.600;2022-10-31T08:33:56;102321.31;;;10.70;93.20
51986;BME280;38002;53.296;6.600;2022-10-31T08:38:57;102323.44;;;10.78;93.36
51986;BME280;38002;53.296;6.600;2022-10-31T08:43:57;102314.75;;;10.84;93.40
51986;BME280;38002;53.296;6.600;2022-10-31T08:48:58;102321.16;;;10.94;93.10
51986;BME280;38002;53.296;6.600;2022-10-31T08:53:58;102319.78;;;11.00;92.80
51986;BME280;38002;53.296;6.600;2022-10-31T08:58:59;102333.44;;;11.09;93.27
51986;BME280;38002;53.296;6.600;2022-10-31T09:03:59;102325.53;;;11.17;93.27
51986;BME280;38002;53.296;6.600;2022-10-31T09:08:59;102323.88;;;11.26;93.33
51986;BME280;38002;53.296;6.600;2022-10-31T09:14:00;102317.50;;;11.36;93.15
51986;BME280;38002;53.296;6.600;2022-10-31T09:19:00;102314.84;;;11.46;93.30
51986;BME280;38002;53.296;6.600;2022-10-31T09:24:01;102313.03;;;11.56;93.63
51986;BME280;38002;53.296;6.600;2022-10-31T09:29:01;102313.97;;;11.66;93.58
51986;BME280;38002;53.296;6.600;2022-10-31T09:34:02;102301.59;;;11.73;93.42
51986;BME280;38002;53.296;6.600;2022-10-31T09:39:02;102304.09;;;11.86;93.70
51986;BME280;38002;53.296;6.600;2022-10-31T09:44:09;102303.03;;;11.98;93.52
51986;BME280;38002;53.296;6.600;2022-10-31T09:54:38;102295.06;;;12.16;93.26
51986;BME280;38002;53.296;6.600;2022-10-31T09:59:43;102305.56;;;12.20;93.44
51986;BME280;38002;53.296;6.600;2022-10-31T10:05:04;102302.13;;;12.28;93.04
51986;BME280;38002;53.296;6.600;2022-10-31T10:21:44;102298.78;;;12.64;93.13
51986;BME280;38002;53.296;6.600;2022-10-31T10:26:53;102293.38;;;12.84;94.22
51986;BME280;38002;53.296;6.600;2022-10-31T10:32:00;102282.19;;;13.06;92.79
51986;BME280;38002;53.296;6.600;2022-10-31T10:37:03;102286.22;;;13.31;93.02
51986;BME280;38002;53.296;6.600;2022-10-31T10:42:11;102281.16;;;13.55;92.25
51986;BME280;38002;53.296;6.600;2022-10-31T10:47:39;102276.97;;;13.70;91.85
51986;BME280;38002;53.296;6.600;2022-10-31T10:52:52;102283.53;;;13.87;91.84
51986;BME280;38002;53.296;6.600;2022-10-31T10:58:01;102262.91;;;14.02;91.75
51986;BME280;38002;53.296;6.600;2022-10-31T11:03:02;102253.47;;;14.14;91.31
51986;BME280;38002;53.296;6.600;2022-10-31T11:08:05;102257.13;;;14.32;91.06
51986;BME280;38002;53.296;6.600;2022-10-31T11:18:27;102252.41;;;14.97;90.79
51986;BME280;38002;53.296;6.600;2022-10-31T11:23:28;102250.78;;;15.30;89.17
51986;BME280;38002;53.296;6.600;2022-10-31T11:28:30;102224.69;;;15.61;89.26
51986;BME280;38002;53.296;6.600;2022-10-31T11:33:38;102231.16;;;15.86;89.14
51986;BME280;38002;53.296;6.600;2022-10-31T11:38:41;102222.38;;;16.08;88.73
51986;BME280;38002;53.296;6.600;2022-10-31T11:48:55;102202.31;;;16.16;88.06
51986;BME280;38002;53.296;6.600;2022-10-31T11:54:01;102196.59;;;16.01;87.81
51986;BME280;38002;53.296;6.600;2022-10-31T11:59:05;102183.31;;;15.88;88.19
51986;BME280;38002;53.296;6.600;2022-10-31T12:04:08;102179.72;;;15.88;88.16
51986;BME280;38002;53.296;6.600;2022-10-31T12:09:23;102172.09;;;16.08;87.97
51986;BME280;38002;53.296;6.600;2022-10-31T13:07:29;102048.03;;;15.80;88.05
51986;BME280;38002;53.296;6.600;2022-10-31T13:12:32;102049.09;;;15.87;87.95
51986;BME280;38002;53.296;6.600;2022-10-31T13:17:38;102050.13;;;15.94;87.75
51986;BME280;38002;53.296;6.600;2022-10-31T13:22:42;102017.72;;;15.98;87.42
51986;BME280;38002;53.296;6.600;2022-10-31T13:27:48;102006.59;;;15.91;87.54
51986;BME280;38002;53.296;6.600;2022-10-31T13:33:11;102043.41;;;15.80;86.58
51986;BME280;38002;53.296;6.600;2022-10-31T13:38:48;102025.72;;;15.67;87.05
51986;BME280;38002;53.296;6.600;2022-10-31T13:48:50;102004.78;;;15.58;87.83
51986;BME280;38002;53.296;6.600;2022-10-31T14:04:19;101975.16;;;15.53;87.84
51986;BME280;38002;53.296;6.600;2022-10-31T14:09:31;101963.31;;;15.53;88.16
51986;BME280;38002;53.296;6.600;2022-10-31T14:14:42;101956.09;;;15.52;87.85
51986;BME280;38002;53.296;6.600;2022-10-31T14:25:36;101932.03;;;15.37;86.96
51986;BME280;38002;53.296;6.600;2022-10-31T14:30:37;101937.38;;;15.39;87.91
51986;BME280;38002;53.296;6.600;2022-10-31T14:35:56;101927.41;;;15.30;87.57
51986;BME280;38002;53.296;6.600;2022-10-31T14:41:25;101909.75;;;15.24;87.62
51986;BME280;38002;53.296;6.600;2022-10-31T14:51:52;101911.22;;;15.11;88.21
51986;BME280;38002;53.296;6.600;2022-10-31T14:56:55;101915.03;;;15.10;88.29
51986;BME280;38002;53.296;6.600;2022-10-31T15:02:12;101916.38;;;15.06;88.27
51986;BME280;38002;53.296;6.600;2022-10-31T15:07:21;101908.47;;;15.03;88.41
51986;BME280;38002;53.296;6.600;2022-10-31T15:12:27;101905.19;;;14.99;88.09
51986;BME280;38002;53.296;6.600;2022-10-31T15:17:27;101898.69;;;14.92;88.39
51986;BME280;38002;53.296;6.600;2022-10-31T15:22:29;101888.38;;;14.86;88.39
51986;BME280;38002;53.296;6.600;2022-10-31T15:27:31;101879.28;;;14.77;88.18
51986;BME280;38002;53.296;6.600;2022-10-31T15:32:33;101877.69;;;14.67;88.31
51986;BME280;38002;53.296;6.600;2022-10-31T15:37:34;101875.94;;;14.58;88.40
51986;BME280;38002;53.296;6.600;2022-10-31T15:42:39;101864.41;;;14.46;88.10
51986;BME280;38002;53.296;6.600;2022-10-31T15:48:15;101854.41;;;14.37;88.36
51986;BME280;38002;53.296;6.600;2022-10-31T15:53:48;101848.19;;;14.27;88.54
51986;BME280;38002;53.296;6.600;2022-10-31T15:58:51;101838.91;;;14.20;88.91
51986;BME280;38002;53.296;6.600;2022-10-31T16:09:22;101828.38;;;14.07;89.12
51986;BME280;38002;53.296;6.600;2022-10-31T16:14:25;101822.38;;;14.03;88.80
51986;BME280;38002;53.296;6.600;2022-10-31T16:19:30;101825.78;;;13.97;88.79
51986;BME280;38002;53.296;6.600;2022-10-31T16:24:37;101822.34;;;13.95;88.85
51986;BME280;38002;53.296;6.600;2022-10-31T16:29:43;101812.59;;;13.93;89.23
51986;BME280;38002;53.296;6.600;2022-10-31T16:34:44;101809.47;;;13.88;89.16
51986;BME280;38002;53.296;6.600;2022-10-31T16:39:44;101800.91;;;13.83;88.98
51986;BME280;38002;53.296;6.600;2022-10-31T16:44:46;101796.63;;;13.80;89.48
51986;BME280;38002;53.296;6.600;2022-10-31T16:49:48;101786.84;;;13.78;89.04
51986;BME280;38002;53.296;6.600;2022-10-31T16:54:52;101790.91;;;13.74;89.48
51986;BME280;38002;53.296;6.600;2022-10-31T16:59:53;101790.72;;;13.67;88.86
51986;BME280;38002;53.296;6.600;2022-10-31T17:04:54;101786.72;;;13.61;88.85
51986;BME280;38002;53.296;6.600;2022-10-31T17:09:54;101783.63;;;13.56;89.32
51986;BME280;38002;53.296;6.600;2022-10-31T17:14:55;101777.94;;;13.50;89.10
51986;BME280;38002;53.296;6.600;2022-10-31T17:19:55;101775.69;;;13.45;88.81
51986;BME280;38002;53.296;6.600;2022-10-31T17:24:56;101756.69;;;13.44;89.63
51986;BME280;38002;53.296;6.600;2022-10-31T17:29:56;101754.13;;;13.42;89.18
51986;BME280;38002;53.296;6.600;2022-10-31T17:34:57;101740.94;;;13.38;89.55
51986;BME280;38002;53.296;6.600;2022-10-31T17:39:57;101735.19;;;13.41;89.33
51986;BME280;38002;53.296;6.600;2022-10-31T17:44:57;101723.38;;;13.40;89.66
51986;BME280;38002;53.296;6.600;2022-10-31T17:49:59;101714.19;;;13.41;89.29
51986;BME280;38002;53.296;6.600;2022-10-31T17:54:59;101707.00;;;13.40;89.70
51986;BME280;38002;53.296;6.600;2022-10-31T18:00:01;101696.06;;;13.40;89.28
51986;BME280;38002;53.296;6.600;2022-10-31T18:05:02;101689.22;;;13.36;90.11
51986;BME280;38002;53.296;6.600;2022-10-31T18:10:04;101675.38;;;13.38;89.67
51986;BME280;38002;53.296;6.600;2022-10-31T18:15:05;101664.44;;;13.38;89.73
51986;BME280;38002;53.296;6.600;2022-10-31T18:20:06;101655.41;;;13.37;89.70
51986;BME280;38002;53.296;6.600;2022-10-31T18:25:07;101645.50;;;13.36;89.70
51986;BME280;38002;53.296;6.600;2022-10-31T18:30:08;101633.56;;;13.37;90.17
51986;BME280;38002;53.296;6.600;2022-10-31T18:35:08;101606.41;;;13.36;89.83
51986;BME280;38002;53.296;6.600;2022-10-31T18:40:09;101610.84;;;13.37;90.06
51986;BME280;38002;53.296;6.600;2022-10-31T18:45:09;101600.78;;;13.37;90.13
51986;BME280;38002;53.296;6.600;2022-10-31T18:50:10;101590.00;;;13.36;90.12
51986;BME280;38002;53.296;6.600;2022-10-31T18:55:10;101585.41;;;13.36;90.74
51986;BME280;38002;53.296;6.600;2022-10-31T19:00:11;101583.53;;;13.37;90.79
51986;BME280;38002;53.296;6.600;2022-10-31T19:05:13;101578.22;;;13.35;90.91
51986;BME280;38002;53.296;6.600;2022-10-31T19:10:13;101567.63;;;13.32;90.83
51986;BME280;38002;53.296;6.600;2022-10-31T19:15:14;101566.25;;;13.28;91.13
51986;BME280;38002;53.296;6.600;2022-10-31T19:20:14;101553.22;;;13.22;90.82
51986;BME280;38002;53.296;6.600;2022-10-31T19:25:15;101537.84;;;13.21;90.66
51986;BME280;38002;53.296;6.600;2022-10-31T19:30:16;101522.81;;;13.17;91.26
51986;BME280;38002;53.296;6.600;2022-10-31T19:35:16;101515.97;;;13.13;91.39
51986;BME280;38002;53.296;6.600;2022-10-31T19:40:17;101512.81;;;13.08;91.19
51986;BME280;38002;53.296;6.600;2022-10-31T19:45:17;101513.88;;;13.07;90.89
51986;BME280;38002;53.296;6.600;2022-10-31T19:50:18;101500.69;;;13.02;90.93
51986;BME280;38002;53.296;6.600;2022-10-31T19:55:18;101511.91;;;12.99;91.36
51986;BME280;38002;53.296;6.600;2022-10-31T20:00:19;101489.56;;;12.96;91.25
51986;BME280;38002;53.296;6.600;2022-10-31T20:05:20;101473.84;;;12.90;91.29
51986;BME280;38002;53.296;6.600;2022-10-31T20:10:20;101461.69;;;12.84;91.56
51986;BME280;38002;53.296;6.600;2022-10-31T20:15:21;101446.47;;;12.82;91.91
51986;BME280;38002;53.296;6.600;2022-10-31T20:20:21;101446.47;;;12.82;91.84
51986;BME280;38002;53.296;6.600;2022-10-31T20:25:21;101425.50;;;12.82;91.60
51986;BME280;38002;53.296;6.600;2022-10-31T20:30:22;101419.03;;;12.83;92.08
51986;BME280;38002;53.296;6.600;2022-10-31T20:35:22;101418.16;;;12.83;91.84
51986;BME280;38002;53.296;6.600;2022-10-31T20:40:23;101396.53;;;12.81;91.74
51986;BME280;38002;53.296;6.600;2022-10-31T20:45:23;101391.56;;;12.77;92.19
51986;BME280;38002;53.296;6.600;2022-10-31T20:50:24;101401.25;;;12.71;91.94
51986;BME280;38002;53.296;6.600;2022-10-31T20:55:25;101398.66;;;12.69;92.10
51986;BME280;38002;53.296;6.600;2022-10-31T21:00:25;101390.81;;;12.66;91.99
51986;BME280;38002;53.296;6.600;2022-10-31T21:05:26;101383.97;;;12.62;91.93
51986;BME280;38002;53.296;6.600;2022-10-31T21:10:27;101390.59;;;12.60;91.86
51986;BME280;38002;53.296;6.600;2022-10-31T21:15:27;101386.31;;;12.57;92.23
51986;BME280;38002;53.296;6.600;2022-10-31T21:20:27;101379.63;;;12.52;92.35
51986;BME280;38002;53.296;6.600;2022-10-31T21:25:28;101378.78;;;12.51;92.21
51986;BME280;38002;53.296;6.600;2022-10-31T21:30:28;101369.38;;;12.46;92.21
51986;BME280;38002;53.296;6.600;2022-10-31T21:35:29;101368.69;;;12.44;92.64
51986;BME280;38002;53.296;6.600;2022-10-31T21:40:29;101361.69;;;12.41;92.26
51986;BME280;38002;53.296;6.600;2022-10-31T21:45:30;101355.84;;;12.36;92.37
51986;BME280;38002;53.296;6.600;2022-10-31T21:50:31;101346.16;;;12.34;92.32
51986;BME280;38002;53.296;6.600;2022-10-31T21:55:31;101343.91;;;12.29;92.63
51986;BME280;38002;53.296;6.600;2022-10-31T22:00:31;101336.88;;;12.26;92.34
51986;BME280;38002;53.296;6.600;2022-10-31T22:05:33;101337.06;;;12.25;92.28
51986;BME280;38002;53.296;6.600;2022-10-31T22:10:33;101337.53;;;12.20;92.30
51986;BME280;38002;53.296;6.600;2022-10-31T22:15:34;101318.94;;;12.16;92.52
51986;BME280;38002;53.296;6.600;2022-10-31T22:20:34;101292.47;;;12.08;92.03
51986;BME280;38002;53.296;6.600;2022-10-31T22:25:35;101300.50;;;12.10;92.39
51986;BME280;38002;53.296;6.600;2022-10-31T22:30:37;101290.78;;;12.07;92.52
51986;BME280;38002;53.296;6.600;2022-10-31T22:35:37;101286.84;;;12.10;92.66
51986;BME280;38002;53.296;6.600;2022-10-31T22:40:38;101280.72;;;12.08;92.73
51986;BME280;38002;53.296;6.600;2022-10-31T22:45:38;101275.28;;;12.08;92.52
51986;BME280;38002;53.296;6.600;2022-10-31T22:50:39;101268.09;;;12.07;92.80
51986;BME280;38002;53.296;6.600;2022-10-31T22:55:39;101260.94;;;12.06;92.98
51986;BME280;38002;53.296;6.600;2022-10-31T23:00:41;101250.19;;;12.04;92.83
51986;BME280;38002;53.296;6.600;2022-10-31T23:05:41;101249.19;;;12.05;92.86
51986;BME280;38002;53.296;6.600;2022-10-31T23:10:41;101244.72;;;12.04;92.82
51986;BME280;38002;53.296;6.600;2022-10-31T23:15:43;101241.34;;;12.02;92.61
51986;BME280;38002;53.296;6.600;2022-10-31T23:20:49;101230.44;;;12.02;92.64
51986;BME280;38002;53.296;6.600;2022-10-31T23:25:50;101224.13;;;12.02;92.73
51986;BME280;38002;53.296;6.600;2022-10-31T23:31:09;101217.81;;;12.01;92.81
51986;BME280;38002;53.296;6.600;2022-10-31T23:36:10;101206.06;;;12.01;92.93
51986;BME280;38002;53.296;6.600;2022-10-31T23:41:10;101197.88;;;12.01;92.93
51986;BME280;38002;53.296;6.600;2022-10-31T23:46:10;101201.59;;;12.00;93.24
51986;BME280;38002;53.296;6.600;2022-10-31T23:51:11;101191.41;;;12.02;92.63
51986;BME280;38002;53.296;6.600;2022-10-31T23:56:12;101178.66;;;12.02;92.98
